Time;durP1;ratioP1;P1;durP2;ratioP2;P2;SDS_P1;SDS_P2;PMS_P1;PMS_P2;Temp;Humidity;BMP_temperature;BMP_pressure;BME280_temperature;BME280_humidity;BME280_pressure;Samples;Min_cycle;Max_cycle;Signal;HPM_P1;HPM_P2
2022/05/06 00:01:39;;;;;;;19.55;11.75;;;;;;;;;;5018336;28;20045;-62
2022/05/06 00:04:06;;;;;;;26.33;14.18;;;;;;;;;;5026901;28;20172;-63
2022/05/06 00:06:32;;;;;;;22.35;14.25;;;;;;;;;;5027877;28;20038;-62
2022/05/06 00:08:58;;;;;;;22.27;13.95;;;;;;;;;;5027407;28;20029;-62
2022/05/06 00:11:24;;;;;;;26.58;15.82;;;;;;;;;;5031481;28;20064;-63
2022/05/06 00:13:53;;;;;;;23.25;13.88;;;;;;;;;;5028742;28;20115;-63
2022/05/06 00:16:20;;;;;;;25.48;14.40;;;;;;;;;;5025033;28;20053;-63
2022/05/06 00:18:46;;;;;;;25.65;14.70;;;;;;;;;;5028930;28;20088;-62
2022/05/06 00:21:12;;;;;;;26.15;14.68;;;;;;;;;;5022271;28;20045;-62
2022/05/06 00:23:38;;;;;;;25.30;15.35;;;;;;;;;;5021154;28;20381;-62
2022/05/06 00:26:04;;;;;;;26.17;15.07;;;;;;;;;;5025726;28;20037;-63
2022/05/06 00:28:30;;;;;;;28.67;15.98;;;;;;;;;;5029162;28;20087;-62
2022/05/06 00:30:57;;;;;;;29.80;16.50;;;;;;;;;;5023119;28;20388;-62
2022/05/06 00:33:26;;;;;;;31.70;16.70;;;;;;;;;;5024088;28;20042;-63
2022/05/06 00:35:56;;;;;;;29.85;16.35;;;;;;;;;;5023881;28;20033;-62
2022/05/06 00:38:22;;;;;;;29.38;16.67;;;;;;;;;;5029952;28;20136;-62
2022/05/06 00:40:48;;;;;;;30.05;16.30;;;;;;;;;;5020781;28;20100;-63
2022/05/06 00:43:14;;;;;;;30.02;15.63;;;;;;;;;;5028584;28;20599;-63
2022/05/06 00:45:49;;;;;;;21.85;13.25;;;;;;;;;;5023440;28;20172;-62
2022/05/06 00:48:16;;;;;;;20.42;13.57;;;;;;;;;;5025882;28;20037;-63
2022/05/06 00:50:43;;;;;;;24.42;14.52;;;;;;;;;;5027935;28;20037;-62
2022/05/06 00:53:10;;;;;;;26.65;15.63;;;;;;;;;;5031036;28;20127;-62
2022/05/06 00:55:36;;;;;;;23.08;13.55;;;;;;;;;;5023926;28;20036;-63
2022/05/06 00:58:03;;;;;;;23.48;14.48;;;;;;;;;;5028271;28;20041;-63
2022/05/06 01:00:29;;;;;;;22.27;14.38;;;;;;;;;;5030328;28;20373;-62
2022/05/06 01:02:55;;;;;;;26.55;15.57;;;;;;;;;;5031002;28;20044;-63
2022/05/06 01:05:24;;;;;;;24.30;14.68;;;;;;;;;;5026499;28;20794;-62
2022/05/06 01:07:51;;;;;;;25.52;14.18;;;;;;;;;;5032178;28;20380;-62
2022/05/06 01:10:18;;;;;;;23.52;13.98;;;;;;;;;;5024956;28;20048;-62
2022/05/06 01:12:44;;;;;;;26.25;14.43;;;;;;;;;;5025050;28;20474;-62
2022/05/06 01:15:22;;;;;;;24.38;14.55;;;;;;;;;;5020835;28;20103;-62
2022/05/06 01:17:49;;;;;;;24.45;14.68;;;;;;;;;;5029033;28;20133;-62
2022/05/06 01:20:16;;;;;;;25.48;14.70;;;;;;;;;;5033016;28;20037;-63
2022/05/06 01:22:48;;;;;;;24.58;14.40;;;;;;;;;;5033995;28;20045;-62
2022/05/06 01:25:15;;;;;;;26.38;15.38;;;;;;;;;;5024634;28;20511;-62
2022/05/06 01:28:01;;;;;;;24.15;14.50;;;;;;;;;;5032289;28;20034;-62
2022/05/06 01:30:34;;;;;;;24.10;14.70;;;;;;;;;;5025314;28;20116;-62
2022/05/06 01:33:01;;;;;;;22.75;14.05;;;;;;;;;;5032237;28;20037;-62
2022/05/06 01:35:29;;;;;;;19.08;12.70;;;;;;;;;;5031630;28;20037;-62
2022/05/06 01:37:56;;;;;;;26.77;14.93;;;;;;;;;;5026182;28;20041;-62
2022/05/06 01:40:25;;;;;;;21.40;12.80;;;;;;;;;;5029610;28;20073;-62
2022/05/06 01:42:54;;;;;;;19.45;11.52;;;;;;;;;;5032694;28;20103;-62
2022/05/06 01:45:22;;;;;;;27.65;14.80;;;;;;;;;;5022921;28;20428;-62
2022/05/06 01:47:51;;;;;;;24.75;14.85;;;;;;;;;;5031252;28;20395;-62
2022/05/06 01:50:17;;;;;;;21.33;13.57;;;;;;;;;;5028053;28;20040;-62
2022/05/06 01:52:43;;;;;;;25.17;14.35;;;;;;;;;;5019974;28;20153;-62
2022/05/06 01:55:12;;;;;;;24.40;14.40;;;;;;;;;;5014668;28;20088;-62
2022/05/06 01:57:38;;;;;;;25.88;15.98;;;;;;;;;;5030343;28;20072;-63
2022/05/06 02:00:05;;;;;;;27.88;15.50;;;;;;;;;;5024908;28;20084;-62
2022/05/06 02:02:31;;;;;;;28.73;15.80;;;;;;;;;;5028337;28;20509;-62
2022/05/06 02:07:42;;;;;;;23.48;14.00;;;;;;;;;;5029665;28;20116;-62
2022/05/06 02:10:08;;;;;;;21.55;12.57;;;;;;;;;;5030596;28;20108;-62
2022/05/06 02:12:34;;;;;;;16.70;10.80;;;;;;;;;;5020966;28;20616;-62
2022/05/06 02:15:00;;;;;;;17.95;11.90;;;;;;;;;;5025507;28;20116;-62
2022/05/06 02:17:26;;;;;;;21.55;12.82;;;;;;;;;;5029289;28;20041;-62
2022/05/06 02:19:52;;;;;;;24.35;14.05;;;;;;;;;;5024401;28;20406;-62
2022/05/06 02:22:18;;;;;;;24.15;14.30;;;;;;;;;;5022532;28;20083;-62
2022/05/06 02:24:44;;;;;;;27.08;14.32;;;;;;;;;;5023928;28;20045;-62
2022/05/06 02:27:12;;;;;;;25.35;14.05;;;;;;;;;;5029563;28;20045;-62
2022/05/06 02:29:38;;;;;;;22.90;14.73;;;;;;;;;;5030400;28;20076;-63
2022/05/06 02:34:50;;;;;;;22.15;13.65;;;;;;;;;;5019093;28;20499;-62
2022/05/06 02:37:16;;;;;;;23.90;14.40;;;;;;;;;;5028733;28;20042;-62
2022/05/06 02:39:42;;;;;;;25.23;15.48;;;;;;;;;;5031060;28;20033;-62
2022/05/06 02:42:08;;;;;;;24.45;14.82;;;;;;;;;;5046627;22;20037;-61
2022/05/06 02:44:34;;;;;;;25.67;15.65;;;;;;;;;;5042129;28;20679;-61
2022/05/06 02:47:00;;;;;;;25.23;15.27;;;;;;;;;;5044187;28;20036;-62
2022/05/06 02:49:26;;;;;;;21.70;14.75;;;;;;;;;;5051899;28;20102;-62
2022/05/06 02:51:52;;;;;;;22.50;13.93;;;;;;;;;;5034347;28;20061;-62
2022/05/06 02:54:21;;;;;;;25.92;14.73;;;;;;;;;;5051560;28;20064;-62
2022/05/06 02:56:49;;;;;;;23.70;14.80;;;;;;;;;;5044738;28;20057;-62
2022/05/06 02:59:15;;;;;;;18.00;11.98;;;;;;;;;;5033196;28;20055;-62
2022/05/06 03:01:41;;;;;;;17.85;12.45;;;;;;;;;;5035258;28;20036;-62
2022/05/06 03:04:08;;;;;;;19.70;13.27;;;;;;;;;;5049411;28;20136;-62
2022/05/06 03:06:34;;;;;;;26.88;14.82;;;;;;;;;;5048981;28;20048;-62
2022/05/06 03:09:00;;;;;;;25.33;14.50;;;;;;;;;;5050987;28;20089;-62
2022/05/06 03:11:26;;;;;;;23.77;14.98;;;;;;;;;;5051701;28;20036;-62
2022/05/06 03:13:52;;;;;;;22.65;14.02;;;;;;;;;;5051069;28;20036;-62
2022/05/06 03:16:18;;;;;;;25.42;13.95;;;;;;;;;;5052309;28;20037;-62
2022/05/06 03:18:44;;;;;;;19.05;11.50;;;;;;;;;;5050221;28;20040;-62
2022/05/06 03:21:10;;;;;;;18.27;11.68;;;;;;;;;;5064804;28;20040;-62
2022/05/06 03:23:37;;;;;;;21.30;12.63;;;;;;;;;;5066243;28;20048;-62
2022/05/06 03:26:03;;;;;;;20.33;13.18;;;;;;;;;;5046161;28;20040;-62
2022/05/06 03:28:30;;;;;;;22.48;13.55;;;;;;;;;;5029264;28;20390;-62
2022/05/06 03:30:57;;;;;;;21.92;13.20;;;;;;;;;;5046932;28;20041;-62
2022/05/06 03:33:24;;;;;;;20.02;12.57;;;;;;;;;;5050827;28;20175;-62
2022/05/06 03:35:50;;;;;;;24.10;13.75;;;;;;;;;;5045835;28;20593;-61
2022/05/06 03:38:16;;;;;;;22.00;13.38;;;;;;;;;;5049200;28;20682;-62
2022/05/06 03:40:42;;;;;;;20.67;12.93;;;;;;;;;;5050967;28;20112;-62
2022/05/06 03:43:08;;;;;;;20.17;13.10;;;;;;;;;;5049521;28;20465;-62
2022/05/06 03:45:38;;;;;;;17.33;11.15;;;;;;;;;;5048249;28;20045;-62
2022/05/06 03:48:04;;;;;;;18.08;10.75;;;;;;;;;;5049093;28;20453;-61
2022/05/06 03:53:16;;;;;;;17.42;10.98;;;;;;;;;;5049290;28;20037;-62
2022/05/06 03:55:42;;;;;;;24.65;12.00;;;;;;;;;;5046127;28;20068;-61
2022/05/06 03:58:08;;;;;;;21.77;12.13;;;;;;;;;;5049152;28;20066;-62
2022/05/06 04:00:34;;;;;;;23.88;13.30;;;;;;;;;;5040785;28;20044;-62
2022/05/06 04:03:00;;;;;;;19.33;12.13;;;;;;;;;;5048799;28;20036;-62
2022/05/06 04:05:27;;;;;;;20.45;13.15;;;;;;;;;;5027248;28;20171;-62
2022/05/06 04:07:54;;;;;;;24.38;13.27;;;;;;;;;;5044729;28;20083;-62
2022/05/06 04:10:20;;;;;;;23.05;12.63;;;;;;;;;;5048161;28;20083;-62
2022/05/06 04:12:46;;;;;;;22.75;13.32;;;;;;;;;;5049790;28;20485;-62
2022/05/06 04:15:13;;;;;;;22.50;13.20;;;;;;;;;;5044710;28;20099;-61
2022/05/06 04:17:39;;;;;;;21.00;12.45;;;;;;;;;;5045038;28;20037;-62
2022/05/06 04:25:35;;;;;;;22.42;13.38;;;;;;;;;;5041302;28;20045;-61
2022/05/06 04:28:02;;;;;;;20.23;12.52;;;;;;;;;;5041462;28;20033;-62
2022/05/06 04:30:28;;;;;;;24.95;13.75;;;;;;;;;;5043205;28;20037;-62
2022/05/06 04:32:54;;;;;;;21.35;12.55;;;;;;;;;;5046697;28;20483;-61
2022/05/06 04:35:20;;;;;;;17.10;11.32;;;;;;;;;;5049152;28;20098;-61
2022/05/06 04:37:46;;;;;;;19.92;12.20;;;;;;;;;;5042969;28;20146;-61
2022/05/06 04:40:12;;;;;;;21.55;13.38;;;;;;;;;;5054555;28;20064;-62
2022/05/06 04:42:38;;;;;;;23.50;14.43;;;;;;;;;;5035298;28;20095;-62
2022/05/06 04:45:04;;;;;;;23.25;14.50;;;;;;;;;;5050302;28;20040;-61
2022/05/06 04:47:31;;;;;;;26.42;16.05;;;;;;;;;;5047705;28;20458;-62
2022/05/06 04:49:56;;;;;;;30.60;16.85;;;;;;;;;;5051920;28;20483;-61
2022/05/06 04:52:22;;;;;;;30.67;16.70;;;;;;;;;;5051064;28;20045;-61
2022/05/06 04:54:49;;;;;;;30.95;17.38;;;;;;;;;;5052139;28;20422;-61
2022/05/06 04:57:15;;;;;;;37.20;18.02;;;;;;;;;;5043024;28;20051;-61
2022/05/06 04:59:41;;;;;;;35.40;17.98;;;;;;;;;;5047940;28;20033;-61
2022/05/06 05:02:07;;;;;;;34.50;18.15;;;;;;;;;;5048362;28;20098;-61
2022/05/06 05:04:33;;;;;;;21.80;12.98;;;;;;;;;;5047533;28;20479;-61
2022/05/06 05:07:00;;;;;;;30.05;18.05;;;;;;;;;;5049638;28;20033;-61
2022/05/06 05:09:26;;;;;;;34.35;18.50;;;;;;;;;;5050567;28;20111;-62
2022/05/06 05:11:52;;;;;;;32.03;17.58;;;;;;;;;;5052791;28;20116;-62
2022/05/06 05:14:18;;;;;;;30.45;16.27;;;;;;;;;;5050132;28;20041;-61
2022/05/06 05:16:44;;;;;;;29.55;16.13;;;;;;;;;;5047001;28;20045;-62
2022/05/06 05:19:09;;;;;;;26.60;15.93;;;;;;;;;;5057551;28;20036;-62
2022/05/06 05:21:35;;;;;;;26.17;16.02;;;;;;;;;;5051321;28;20056;-62
2022/05/06 05:24:01;;;;;;;28.52;16.27;;;;;;;;;;5051657;28;20087;-62
2022/05/06 05:26:27;;;;;;;30.48;17.40;;;;;;;;;;5049387;28;20087;-62
2022/05/06 05:28:53;;;;;;;37.20;19.40;;;;;;;;;;5051653;28;20033;-62
2022/05/06 05:31:19;;;;;;;37.10;19.95;;;;;;;;;;5052670;28;20063;-61
2022/05/06 05:33:45;;;;;;;37.67;20.70;;;;;;;;;;5042026;28;20049;-62
2022/05/06 05:36:11;;;;;;;36.63;19.80;;;;;;;;;;5043155;28;20033;-62
2022/05/06 05:38:38;;;;;;;40.17;20.83;;;;;;;;;;5044395;28;20042;-61
2022/05/06 05:41:05;;;;;;;42.78;20.35;;;;;;;;;;5040769;28;20415;-61
2022/05/06 05:49:00;;;;;;;43.08;21.65;;;;;;;;;;5040005;28;20064;-61
2022/05/06 05:51:26;;;;;;;41.08;22.08;;;;;;;;;;5039689;28;20700;-61
2022/05/06 05:53:52;;;;;;;44.28;24.27;;;;;;;;;;5045566;28;20041;-62
2022/05/06 05:56:18;;;;;;;52.63;26.23;;;;;;;;;;5038498;28;20037;-61
2022/05/06 05:58:45;;;;;;;53.70;27.45;;;;;;;;;;5041135;28;20062;-61
2022/05/06 06:01:11;;;;;;;55.17;27.98;;;;;;;;;;5046923;28;20045;-61
2022/05/06 06:03:37;;;;;;;61.17;30.42;;;;;;;;;;5043533;28;20040;-61
2022/05/06 06:06:03;;;;;;;59.22;28.90;;;;;;;;;;5042249;28;20029;-61
2022/05/06 06:08:29;;;;;;;62.17;29.63;;;;;;;;;;5042399;28;20041;-62
2022/05/06 06:10:55;;;;;;;58.72;31.65;;;;;;;;;;5045382;28;20041;-62
2022/05/06 06:13:22;;;;;;;61.95;30.55;;;;;;;;;;5047203;28;20041;-62
2022/05/06 06:15:48;;;;;;;58.95;30.55;;;;;;;;;;5042934;28;20044;-62
2022/05/06 06:18:15;;;;;;;62.92;30.48;;;;;;;;;;5046591;28;20068;-62
2022/05/06 06:20:41;;;;;;;68.82;33.40;;;;;;;;;;5043889;28;20122;-62
2022/05/06 06:23:07;;;;;;;67.38;33.25;;;;;;;;;;5044180;28;20140;-61
2022/05/06 06:25:34;;;;;;;65.50;31.77;;;;;;;;;;5042453;28;20128;-62
2022/05/06 06:28:00;;;;;;;61.85;30.70;;;;;;;;;;5047027;28;20049;-62
2022/05/06 06:30:26;;;;;;;58.45;29.70;;;;;;;;;;5042996;28;20504;-62
2022/05/06 06:32:52;;;;;;;55.50;29.95;;;;;;;;;;5046507;28;20120;-62
2022/05/06 06:35:18;;;;;;;59.08;29.08;;;;;;;;;;5044682;28;20037;-62
2022/05/06 06:37:45;;;;;;;54.38;29.23;;;;;;;;;;5045560;28;20045;-62
2022/05/06 06:40:11;;;;;;;57.20;29.58;;;;;;;;;;5044051;28;20450;-62
2022/05/06 06:42:37;;;;;;;53.42;29.17;;;;;;;;;;5044472;28;20047;-62
2022/05/06 06:45:04;;;;;;;52.03;26.23;;;;;;;;;;5042088;28;20410;-62
2022/05/06 06:47:30;;;;;;;46.67;26.60;;;;;;;;;;5045496;28;20049;-62
2022/05/06 06:49:58;;;;;;;46.83;24.48;;;;;;;;;;5027714;28;20051;-63
2022/05/06 06:52:24;;;;;;;44.30;23.80;;;;;;;;;;5047045;28;20037;-62
2022/05/06 06:54:50;;;;;;;40.40;22.63;;;;;;;;;;5044755;28;20045;-63
2022/05/06 06:57:16;;;;;;;37.35;21.80;;;;;;;;;;5024060;28;20037;-62
2022/05/06 06:59:42;;;;;;;35.10;20.70;;;;;;;;;;5024274;28;20052;-62
2022/05/06 07:02:08;;;;;;;35.83;19.77;;;;;;;;;;5044765;28;20048;-62
2022/05/06 07:04:34;;;;;;;32.78;17.45;;;;;;;;;;5046675;28;20457;-63
2022/05/06 07:12:29;;;;;;;31.95;18.13;;;;;;;;;;5046661;28;20127;-62
2022/05/06 07:14:55;;;;;;;31.35;17.75;;;;;;;;;;5045775;28;20562;-62
2022/05/06 07:17:21;;;;;;;32.75;19.00;;;;;;;;;;5044073;28;20045;-62
2022/05/06 07:19:48;;;;;;;37.42;19.27;;;;;;;;;;5045312;28;20475;-62
2022/05/06 07:22:14;;;;;;;35.50;19.85;;;;;;;;;;5045329;28;20135;-62
2022/05/06 07:24:40;;;;;;;40.25;21.27;;;;;;;;;;5047830;28;20558;-62
2022/05/06 07:27:07;;;;;;;40.45;22.80;;;;;;;;;;5038796;28;20034;-62
2022/05/06 07:29:34;;;;;;;48.40;24.45;;;;;;;;;;5044674;28;20040;-63
2022/05/06 07:32:00;;;;;;;56.10;26.98;;;;;;;;;;5044424;28;20539;-62
2022/05/06 07:34:26;;;;;;;53.33;26.25;;;;;;;;;;5047319;28;20478;-62
2022/05/06 07:36:52;;;;;;;54.85;25.17;;;;;;;;;;5042574;28;20033;-62
2022/05/06 07:39:18;;;;;;;52.08;24.17;;;;;;;;;;5026876;28;20039;-62
2022/05/06 07:41:44;;;;;;;41.53;22.05;;;;;;;;;;5026360;28;20045;-62
2022/05/06 07:44:10;;;;;;;39.95;21.00;;;;;;;;;;5044562;28;20043;-62
2022/05/06 07:46:36;;;;;;;39.30;21.40;;;;;;;;;;5043211;28;20033;-62
2022/05/06 07:49:03;;;;;;;42.63;22.55;;;;;;;;;;5043271;28;20037;-62
2022/05/06 07:51:29;;;;;;;50.92;25.35;;;;;;;;;;5046069;28;20108;-62
2022/05/06 07:53:56;;;;;;;47.47;23.73;;;;;;;;;;5027476;28;20426;-62
2022/05/06 07:56:23;;;;;;;47.83;24.90;;;;;;;;;;5026542;28;20138;-62
2022/05/06 07:58:49;;;;;;;43.35;23.23;;;;;;;;;;5041016;28;20546;-61
2022/05/06 08:01:15;;;;;;;37.45;21.70;;;;;;;;;;5045083;28;20041;-62
2022/05/06 08:06:26;;;;;;;38.33;20.20;;;;;;;;;;5043207;28;20040;-62
2022/05/06 08:08:52;;;;;;;38.15;21.27;;;;;;;;;;5027099;28;20044;-62
2022/05/06 08:11:18;;;;;;;37.28;21.52;;;;;;;;;;5045864;28;20029;-62
2022/05/06 08:13:44;;;;;;;40.38;22.20;;;;;;;;;;5028687;28;20106;-62
2022/05/06 08:16:10;;;;;;;39.13;22.13;;;;;;;;;;5048071;28;20120;-61
2022/05/06 08:18:37;;;;;;;40.42;21.88;;;;;;;;;;5049356;28;20060;-62
2022/05/06 08:21:03;;;;;;;41.08;22.08;;;;;;;;;;5047700;28;20482;-62
2022/05/06 08:23:29;;;;;;;37.08;21.52;;;;;;;;;;5033500;28;20037;-62
2022/05/06 08:25:55;;;;;;;39.05;21.48;;;;;;;;;;5048992;28;20372;-62
2022/05/06 08:28:22;;;;;;;38.92;20.98;;;;;;;;;;5048717;28;20049;-62
2022/05/06 08:30:49;;;;;;;38.28;20.10;;;;;;;;;;5049006;28;20045;-62
2022/05/06 08:33:15;;;;;;;34.25;19.60;;;;;;;;;;5048347;28;20102;-62
2022/05/06 08:35:44;;;;;;;37.25;20.48;;;;;;;;;;5045548;28;20041;-62
2022/05/06 08:38:11;;;;;;;37.45;20.30;;;;;;;;;;5052517;28;20419;-63
2022/05/06 08:40:37;;;;;;;35.97;20.25;;;;;;;;;;5050118;28;20067;-62
2022/05/06 08:43:04;;;;;;;37.40;20.20;;;;;;;;;;5053511;22;20091;-63
2022/05/06 08:51:00;;;;;;;34.60;18.10;;;;;;;;;;5033926;28;20488;-63
2022/05/06 08:53:26;;;;;;;34.70;19.38;;;;;;;;;;5022770;28;20046;-63
2022/05/06 08:55:55;;;;;;;30.00;17.50;;;;;;;;;;5009917;28;20468;-63
2022/05/06 08:58:22;;;;;;;30.10;16.73;;;;;;;;;;5013619;28;20053;-64
2022/05/06 09:00:48;;;;;;;31.20;16.88;;;;;;;;;;5014362;28;20073;-63
2022/05/06 09:03:15;;;;;;;29.02;16.15;;;;;;;;;;5012740;28;20034;-63
2022/05/06 09:06:07;;;;;;;27.02;16.27;;;;;;;;;;5011398;28;20543;-63
2022/05/06 09:08:37;;;;;;;27.65;15.98;;;;;;;;;;4975801;28;20069;-64
2022/05/06 09:11:04;;;;;;;25.75;15.52;;;;;;;;;;5017509;28;20034;-63
2022/05/06 09:13:31;;;;;;;27.08;15.00;;;;;;;;;;5014087;28;20041;-64
2022/05/06 09:19:10;;;;;;;24.58;13.93;;;;;;;;;;5010692;28;20045;-63
2022/05/06 09:21:36;;;;;;;24.98;14.35;;;;;;;;;;5007583;28;20135;-63
2022/05/06 09:24:19;;;;;;;26.40;14.65;;;;;;;;;;5012144;28;20049;-63
2022/05/06 09:27:00;;;;;;;24.80;15.02;;;;;;;;;;5007141;28;20035;-63
2022/05/06 09:29:27;;;;;;;23.48;13.80;;;;;;;;;;5011527;28;20037;-63
2022/05/06 09:31:54;;;;;;;25.00;14.38;;;;;;;;;;5013819;28;20034;-63
2022/05/06 09:34:26;;;;;;;24.55;13.82;;;;;;;;;;5012756;28;20408;-63
2022/05/06 09:36:52;;;;;;;22.88;13.88;;;;;;;;;;5007564;28;20042;-63
2022/05/06 09:39:21;;;;;;;23.20;13.63;;;;;;;;;;5022699;28;20252;-63
2022/05/06 09:41:48;;;;;;;23.13;12.63;;;;;;;;;;5015292;28;20038;-63
2022/05/06 09:44:15;;;;;;;18.35;11.27;;;;;;;;;;5012582;28;20088;-63
2022/05/06 09:46:41;;;;;;;20.45;11.27;;;;;;;;;;5011407;28;20046;-63
2022/05/06 09:49:07;;;;;;;17.48;11.68;;;;;;;;;;5011139;28;20030;-63
2022/05/06 09:51:34;;;;;;;18.73;10.40;;;;;;;;;;5011830;28;20030;-63
2022/05/06 09:54:01;;;;;;;17.10;9.63;;;;;;;;;;5020381;28;20037;-63
2022/05/06 09:56:30;;;;;;;17.02;9.52;;;;;;;;;;5009196;28;20069;-63
2022/05/06 09:58:57;;;;;;;17.92;9.88;;;;;;;;;;5013567;28;20115;-63
2022/05/06 10:01:23;;;;;;;19.90;9.25;;;;;;;;;;5014776;28;20049;-63
2022/05/06 10:03:50;;;;;;;16.00;9.13;;;;;;;;;;5011303;28;20037;-63
2022/05/06 10:06:17;;;;;;;15.63;8.45;;;;;;;;;;5006639;28;20046;-63
2022/05/06 10:08:50;;;;;;;13.85;8.70;;;;;;;;;;5008860;28;20038;-63
2022/05/06 10:11:22;;;;;;;16.10;9.88;;;;;;;;;;5008228;28;20038;-63
2022/05/06 10:13:48;;;;;;;15.25;8.43;;;;;;;;;;5005038;28;20449;-63
2022/05/06 10:16:14;;;;;;;12.75;7.53;;;;;;;;;;5005255;28;20038;-63
2022/05/06 10:18:41;;;;;;;12.15;7.20;;;;;;;;;;5008404;28;20117;-63
2022/05/06 10:21:14;;;;;;;11.35;6.45;;;;;;;;;;5009895;28;20084;-64
2022/05/06 10:23:44;;;;;;;8.88;6.03;;;;;;;;;;5011560;28;20452;-63
2022/05/06 10:26:30;;;;;;;8.90;6.13;;;;;;;;;;5004739;28;20042;-63
2022/05/06 10:34:27;;;;;;;6.20;5.00;;;;;;;;;;5009182;28;20093;-63
2022/05/06 10:36:57;;;;;;;7.80;5.65;;;;;;;;;;5011148;28;20037;-64
2022/05/06 10:39:23;;;;;;;7.35;5.43;;;;;;;;;;5012329;28;20388;-64
2022/05/06 10:42:08;;;;;;;6.53;5.03;;;;;;;;;;5010108;28;20128;-64
2022/05/06 10:44:42;;;;;;;7.30;5.78;;;;;;;;;;5008679;28;20120;-63
2022/05/06 10:47:14;;;;;;;7.35;5.32;;;;;;;;;;4993603;28;20037;-64
2022/05/06 10:49:40;;;;;;;6.35;4.75;;;;;;;;;;4996511;28;20045;-63
2022/05/06 10:52:28;;;;;;;6.28;5.00;;;;;;;;;;4983540;28;20049;-64
2022/05/06 10:55:00;;;;;;;4.10;3.67;;;;;;;;;;4989976;28;20132;-64
2022/05/06 10:57:30;;;;;;;8.30;4.15;;;;;;;;;;5010179;28;20042;-64
2022/05/06 11:00:00;;;;;;;4.47;4.03;;;;;;;;;;5004618;28;20121;-64
2022/05/06 11:02:34;;;;;;;3.85;3.45;;;;;;;;;;5009631;28;20038;-64
2022/05/06 11:05:00;;;;;;;6.38;3.45;;;;;;;;;;5002790;28;20034;-64
2022/05/06 11:07:27;;;;;;;4.30;3.80;;;;;;;;;;5002602;28;20034;-64
2022/05/06 11:09:53;;;;;;;3.60;3.30;;;;;;;;;;5005618;28;20038;-64
2022/05/06 11:12:35;;;;;;;3.92;3.03;;;;;;;;;;5006091;28;20049;-63
2022/05/06 11:15:03;;;;;;;3.17;2.88;;;;;;;;;;5005982;28;20049;-63
2022/05/06 11:17:31;;;;;;;3.08;2.78;;;;;;;;;;4997477;28;20530;-63
2022/05/06 11:19:57;;;;;;;4.35;2.80;;;;;;;;;;5008296;28;20048;-64
2022/05/06 11:22:24;;;;;;;6.63;3.20;;;;;;;;;;5013791;28;20507;-64
2022/05/06 11:24:50;;;;;;;3.90;3.50;;;;;;;;;;5016609;28;20045;-64
2022/05/06 11:27:17;;;;;;;4.80;3.35;;;;;;;;;;5000510;28;20188;-64
2022/05/06 11:30:14;;;;;;;5.18;3.75;;;;;;;;;;5005125;28;20112;-64
2022/05/06 11:32:46;;;;;;;3.30;3.00;;;;;;;;;;4990609;28;20129;-64
2022/05/06 11:35:15;;;;;;;4.53;2.90;;;;;;;;;;5004884;28;20037;-64
2022/05/06 11:37:42;;;;;;;3.90;3.30;;;;;;;;;;5002052;28;20045;-64
2022/05/06 11:42:49;;;;;;;5.07;3.97;;;;;;;;;;5003349;28;20042;-64
2022/05/06 11:48:08;;;;;;;5.45;3.47;;;;;;;;;;5001287;28;20037;-64
2022/05/06 11:50:35;;;;;;;4.85;3.30;;;;;;;;;;5000597;28;20427;-64
2022/05/06 11:53:04;;;;;;;3.80;3.30;;;;;;;;;;5003790;28;20045;-64
2022/05/06 11:55:30;;;;;;;4.57;4.18;;;;;;;;;;5002993;28;20116;-64
2022/05/06 11:57:56;;;;;;;5.43;3.55;;;;;;;;;;5004477;28;20092;-63
2022/05/06 12:00:23;;;;;;;20.40;3.53;;;;;;;;;;4985727;28;20085;-64
2022/05/06 12:02:49;;;;;;;4.82;3.42;;;;;;;;;;5002200;28;20034;-63
2022/05/06 12:05:16;;;;;;;5.15;3.88;;;;;;;;;;5002120;28;20066;-63
2022/05/06 12:07:42;;;;;;;4.43;3.88;;;;;;;;;;5002816;28;20038;-63
2022/05/06 12:10:10;;;;;;;6.00;3.67;;;;;;;;;;5001882;28;20040;-63
2022/05/06 12:12:56;;;;;;;5.15;4.22;;;;;;;;;;5000695;28;20038;-63
2022/05/06 12:15:32;;;;;;;4.10;3.40;;;;;;;;;;5001033;28;20658;-64
2022/05/06 12:18:05;;;;;;;5.32;3.30;;;;;;;;;;4999521;28;20085;-61
2022/05/06 12:20:33;;;;;;;4.68;2.90;;;;;;;;;;5002741;28;20038;-61
2022/05/06 12:22:59;;;;;;;5.57;3.13;;;;;;;;;;5001842;28;20052;-62
2022/05/06 12:25:25;;;;;;;6.90;3.80;;;;;;;;;;5000024;28;20042;-62
2022/05/06 12:28:10;;;;;;;3.40;2.90;;;;;;;;;;5002681;28;20034;-62
2022/05/06 12:30:37;;;;;;;3.90;2.72;;;;;;;;;;5001084;28;20038;-62
2022/05/06 12:33:04;;;;;;;4.10;2.78;;;;;;;;;;5002453;28;20046;-62
2022/05/06 12:35:30;;;;;;;4.07;2.47;;;;;;;;;;5001199;28;20050;-63
2022/05/06 12:37:58;;;;;;;2.75;1.88;;;;;;;;;;5008324;28;20048;-63
2022/05/06 12:40:43;;;;;;;1.65;1.35;;;;;;;;;;5007358;28;20045;-62
2022/05/06 12:43:09;;;;;;;5.88;1.70;;;;;;;;;;4987362;28;20042;-63
2022/05/06 12:45:36;;;;;;;3.95;1.40;;;;;;;;;;5010533;28;20045;-63
2022/05/06 12:50:46;;;;;;;1.98;1.70;;;;;;;;;;5005674;28;20073;-63
2022/05/06 12:53:12;;;;;;;4.03;2.28;;;;;;;;;;5007466;28;20061;-63
2022/05/06 12:55:38;;;;;;;3.28;2.38;;;;;;;;;;5010266;28;20038;-63
2022/05/06 12:58:05;;;;;;;5.70;2.40;;;;;;;;;;5001006;28;20046;-63
2022/05/06 13:00:31;;;;;;;4.88;2.00;;;;;;;;;;5006640;28;20041;-63
2022/05/06 13:02:58;;;;;;;4.60;2.30;;;;;;;;;;5003866;28;20050;-62
2022/05/06 13:05:24;;;;;;;4.47;3.28;;;;;;;;;;5011903;28;20046;-63
2022/05/06 13:07:50;;;;;;;3.17;2.65;;;;;;;;;;5012591;28;20115;-62
2022/05/06 13:10:16;;;;;;;3.92;2.20;;;;;;;;;;5008231;28;20034;-63
2022/05/06 13:12:45;;;;;;;3.60;1.58;;;;;;;;;;5004006;28;20409;-63
2022/05/06 13:15:11;;;;;;;4.28;2.78;;;;;;;;;;5005585;28;20042;-63
2022/05/06 13:17:37;;;;;;;4.82;2.33;;;;;;;;;;5007775;28;20038;-62
2022/05/06 13:20:04;;;;;;;5.80;2.80;;;;;;;;;;5002547;28;20453;-63
2022/05/06 13:22:30;;;;;;;4.85;2.85;;;;;;;;;;5003981;28;20069;-63
2022/05/06 13:24:56;;;;;;;5.25;2.30;;;;;;;;;;5009908;28;20073;-63
2022/05/06 13:27:22;;;;;;;6.72;2.92;;;;;;;;;;5012472;28;20046;-63
2022/05/06 13:29:48;;;;;;;6.93;3.30;;;;;;;;;;5023793;28;20099;-63
2022/05/06 13:32:15;;;;;;;5.80;2.58;;;;;;;;;;5012420;28;20048;-63
2022/05/06 13:34:41;;;;;;;4.75;3.30;;;;;;;;;;5009908;28;20081;-63
2022/05/06 13:37:07;;;;;;;4.22;3.50;;;;;;;;;;5006737;28;20038;-63
2022/05/06 13:39:33;;;;;;;4.63;3.67;;;;;;;;;;5012065;28;20446;-63
2022/05/06 13:41:59;;;;;;;5.85;2.70;;;;;;;;;;5013184;28;20037;-63
2022/05/06 13:44:25;;;;;;;3.72;2.60;;;;;;;;;;5022253;28;20042;-63
2022/05/06 13:46:52;;;;;;;8.25;3.55;;;;;;;;;;5006284;28;20057;-63
2022/05/06 13:49:19;;;;;;;5.35;3.95;;;;;;;;;;5006344;28;20053;-63
2022/05/06 13:51:45;;;;;;;6.20;3.72;;;;;;;;;;5008558;28;20583;-63
2022/05/06 13:54:11;;;;;;;5.10;3.80;;;;;;;;;;5006455;28;20038;-63
2022/05/06 13:59:21;;;;;;;7.05;4.20;;;;;;;;;;5004640;28;20041;-63
2022/05/06 14:01:49;;;;;;;8.32;5.05;;;;;;;;;;5011200;28;20125;-63
2022/05/06 14:04:15;;;;;;;455.05;105.53;;;;;;;;;;5010731;28;20353;-63
2022/05/06 14:06:41;;;;;;;454.65;90.13;;;;;;;;;;4987402;28;20041;-63
2022/05/06 14:09:07;;;;;;;8.55;4.63;;;;;;;;;;5000867;28;20042;-62
2022/05/06 14:11:33;;;;;;;5.40;4.25;;;;;;;;;;5008324;28;20120;-63
2022/05/06 14:14:00;;;;;;;6.38;4.53;;;;;;;;;;5007012;28;20544;-63
2022/05/06 14:16:28;;;;;;;12.32;4.97;;;;;;;;;;5005650;28;20042;-63
2022/05/06 14:18:56;;;;;;;9.07;5.10;;;;;;;;;;4998269;28;20074;-63
2022/05/06 14:21:23;;;;;;;9.32;5.20;;;;;;;;;;5002985;28;20046;-63
2022/05/06 14:23:49;;;;;;;7.18;4.65;;;;;;;;;;5001391;28;20038;-63
2022/05/06 14:26:15;;;;;;;7.25;5.90;;;;;;;;;;4970552;28;20046;-63
2022/05/06 14:28:41;;;;;;;9.82;5.75;;;;;;;;;;5005093;28;20116;-63
2022/05/06 14:31:08;;;;;;;9.15;5.43;;;;;;;;;;5002130;28;20045;-63
2022/05/06 14:33:34;;;;;;;7.38;5.10;;;;;;;;;;5001749;28;20077;-63
2022/05/06 14:36:00;;;;;;;10.80;5.47;;;;;;;;;;5004932;28;20065;-63
2022/05/06 14:38:26;;;;;;;9.23;5.22;;;;;;;;;;5004846;28;20038;-63
2022/05/06 14:40:52;;;;;;;8.60;5.05;;;;;;;;;;5002178;28;20045;-63
2022/05/06 14:43:18;;;;;;;8.07;5.47;;;;;;;;;;5031800;23;20070;-63
2022/05/06 14:45:44;;;;;;;9.32;5.13;;;;;;;;;;5027371;28;20181;-63
2022/05/06 14:48:11;;;;;;;7.13;5.03;;;;;;;;;;5025808;28;20048;-63
2022/05/06 14:50:37;;;;;;;6.97;4.20;;;;;;;;;;5031199;28;20088;-63
2022/05/06 14:53:03;;;;;;;9.52;4.18;;;;;;;;;;5027727;28;20042;-63
2022/05/06 14:55:28;;;;;;;8.48;4.43;;;;;;;;;;5029415;28;20048;-63
2022/05/06 14:57:56;;;;;;;6.45;3.95;;;;;;;;;;5026265;28;20147;-63
2022/05/06 15:00:23;;;;;;;4.80;4.00;;;;;;;;;;5028255;28;21603;-62
2022/05/06 15:02:48;;;;;;;6.50;4.68;;;;;;;;;;5027200;28;20073;-62
2022/05/06 15:05:16;;;;;;;7.20;4.60;;;;;;;;;;5028722;28;20069;-63
2022/05/06 15:07:42;;;;;;;6.32;4.10;;;;;;;;;;5023054;28;20091;-62
2022/05/06 15:10:08;;;;;;;7.38;4.43;;;;;;;;;;5027843;28;20033;-62
2022/05/06 15:12:34;;;;;;;6.25;4.28;;;;;;;;;;5029570;28;20037;-62
2022/05/06 15:15:00;;;;;;;7.55;3.90;;;;;;;;;;5028759;28;20087;-63
2022/05/06 15:17:26;;;;;;;6.85;3.75;;;;;;;;;;5027732;28;20037;-62
2022/05/06 15:19:53;;;;;;;6.30;3.53;;;;;;;;;;5029049;28;20048;-62